createdAt,value
2018-03-11T00:00:50.878Z,18.40
2018-03-11T00:03:18.529Z,16.80
2018-03-11T00:05:46.122Z,19.37
2018-03-11T00:08:13.731Z,14.23
2018-03-11T00:10:41.404Z,16.40
2018-03-11T00:13:08.992Z,14.60
2018-03-11T00:15:36.623Z,17.03
2018-03-11T00:18:04.336Z,15.17
2018-03-11T00:20:32.692Z,15.80
2018-03-11T00:23:00.319Z,15.23
2018-03-11T00:25:27.959Z,13.50
2018-03-11T00:27:57.362Z,14.87
2018-03-11T00:30:25.930Z,14.90
2018-03-11T00:32:54.441Z,14.13
2018-03-11T00:35:22.087Z,15.87
2018-03-11T00:37:50.465Z,16.03
2018-03-11T00:40:18.841Z,15.87
2018-03-11T00:42:47.267Z,15.43
2018-03-11T00:45:14.878Z,14.00
2018-03-11T00:47:43.256Z,15.67
2018-03-11T00:50:11.635Z,16.27
2018-03-11T00:52:40.048Z,13.90
2018-03-11T00:55:07.634Z,14.17
2018-03-11T00:57:35.272Z,14.87
2018-03-11T01:00:02.887Z,17.13
2018-03-11T01:02:31.274Z,18.60
2018-03-11T01:04:59.704Z,15.43
2018-03-11T01:07:27.330Z,15.53
2018-03-11T01:09:54.922Z,15.03
2018-03-11T01:12:22.584Z,13.17
2018-03-11T01:14:50.218Z,13.40
2018-03-11T01:17:17.830Z,14.50
2018-03-11T01:19:45.463Z,13.00
2018-03-11T01:22:13.053Z,13.03
2018-03-11T01:24:41.397Z,12.53
2018-03-11T01:27:08.990Z,12.93
2018-03-11T01:29:36.615Z,12.83
2018-03-11T01:32:04.453Z,11.87
2018-03-11T01:34:32.044Z,13.27
2018-03-11T01:36:59.661Z,11.20
2018-03-11T01:39:27.287Z,12.93
2018-03-11T01:41:54.878Z,12.87
2018-03-11T01:44:23.243Z,12.60
2018-03-11T01:46:51.634Z,13.50
2018-03-11T01:49:19.987Z,12.60
2018-03-11T01:51:49.058Z,12.37
2018-03-11T01:54:16.691Z,12.07
2018-03-11T01:56:44.287Z,12.87
2018-03-11T01:59:11.874Z,12.10
2018-03-11T02:01:40.310Z,13.27
2018-03-11T02:04:07.902Z,14.87
2018-03-11T02:06:35.494Z,12.60
2018-03-11T02:09:03.127Z,14.03
2018-03-11T02:11:31.518Z,12.63
2018-03-11T02:13:59.271Z,12.47
2018-03-11T02:16:27.651Z,11.83
2018-03-11T02:18:55.316Z,13.00
2018-03-11T02:21:23.720Z,11.87
2018-03-11T02:23:51.347Z,12.40
2018-03-11T02:26:19.713Z,11.30
2018-03-11T02:28:47.380Z,12.77
2018-03-11T02:31:15.825Z,12.90
2018-03-11T02:33:44.203Z,12.67
2018-03-11T02:36:11.847Z,12.87
2018-03-11T02:38:39.475Z,12.47
2018-03-11T02:41:07.217Z,13.50
2018-03-11T02:43:35.701Z,12.03
2018-03-11T02:46:04.146Z,12.53
2018-03-11T02:48:31.764Z,12.00
2018-03-11T02:50:59.375Z,13.00
2018-03-11T02:53:27.036Z,12.67
2018-03-11T02:55:55.445Z,13.70
2018-03-11T02:58:23.823Z,14.00
2018-03-11T03:00:52.275Z,13.30
2018-03-11T03:03:19.902Z,13.13
2018-03-11T03:05:47.529Z,11.90
2018-03-11T03:08:16.903Z,13.70
2018-03-11T03:10:44.558Z,13.13
2018-03-11T03:13:12.227Z,13.73
2018-03-11T03:15:39.821Z,14.07
2018-03-11T03:18:07.471Z,16.27
2018-03-11T03:20:35.112Z,13.13
2018-03-11T03:23:02.738Z,12.50
2018-03-11T03:25:30.377Z,12.67
2018-03-11T03:27:57.992Z,13.97
2018-03-11T03:30:25.662Z,14.07
2018-03-11T03:32:54.060Z,14.43
2018-03-11T03:35:22.482Z,14.77
2018-03-11T03:37:50.922Z,13.47
2018-03-11T03:40:18.543Z,15.87
2018-03-11T03:42:46.240Z,15.00
2018-03-11T03:45:14.649Z,12.00
2018-03-11T03:47:42.372Z,14.53
2018-03-11T03:50:10.010Z,13.20
2018-03-11T03:52:37.693Z,12.87
2018-03-11T03:55:06.067Z,14.77
2018-03-11T03:57:34.514Z,12.77
2018-03-11T04:00:02.142Z,14.63
2018-03-11T04:02:29.738Z,14.27
2018-03-11T04:04:57.353Z,13.90
2018-03-11T04:07:24.955Z,14.67
2018-03-11T04:09:52.838Z,13.50
2018-03-11T04:12:20.544Z,15.20
2018-03-11T04:14:48.145Z,13.40
2018-03-11T04:17:15.750Z,15.07
2018-03-11T04:19:43.372Z,14.57
2018-03-11T04:22:11.010Z,13.37
2018-03-11T04:24:38.597Z,13.10
2018-03-11T04:27:06.209Z,14.70
2018-03-11T04:29:33.857Z,14.57
2018-03-11T04:32:01.443Z,16.03
2018-03-11T04:34:29.031Z,15.13
2018-03-11T04:36:56.664Z,14.57
2018-03-11T04:39:24.238Z,15.03
2018-03-11T04:41:51.852Z,16.00
2018-03-11T04:44:19.474Z,15.13
2018-03-11T04:46:47.850Z,15.43
2018-03-11T04:49:15.455Z,15.23
2018-03-11T04:51:43.085Z,15.20
2018-03-11T04:54:11.452Z,15.60
2018-03-11T04:56:39.051Z,15.53
2018-03-11T04:59:06.691Z,15.97
2018-03-11T05:01:35.045Z,16.40
2018-03-11T05:04:02.678Z,14.90
2018-03-11T05:06:30.329Z,16.50
2018-03-11T05:08:57.919Z,16.33
2018-03-11T05:11:25.538Z,13.53
2018-03-11T05:13:53.163Z,16.37
2018-03-11T05:16:21.537Z,16.30
2018-03-11T05:18:49.910Z,15.10
2018-03-11T05:21:17.571Z,16.33
2018-03-11T05:23:45.162Z,15.03
2018-03-11T05:26:12.766Z,16.93
2018-03-11T05:28:40.409Z,16.20
2018-03-11T05:31:08.038Z,14.57
2018-03-11T05:33:36.422Z,15.40
2018-03-11T05:36:04.066Z,14.93
2018-03-11T05:38:31.688Z,15.70
2018-03-11T05:40:59.280Z,16.77
2018-03-11T05:43:27.690Z,15.70
2018-03-11T05:45:55.311Z,15.37
2018-03-11T05:48:23.676Z,15.27
2018-03-11T05:50:51.314Z,16.77
2018-03-11T05:53:18.939Z,16.27
2018-03-11T05:55:46.559Z,15.80
2018-03-11T05:58:15.388Z,15.37
2018-03-11T06:00:43.008Z,15.87
2018-03-11T06:03:10.670Z,13.80
2018-03-11T06:05:38.314Z,14.60
2018-03-11T06:08:06.547Z,15.03
2018-03-11T06:10:34.252Z,15.37
2018-03-11T06:13:01.823Z,15.83
2018-03-11T06:15:29.422Z,16.80
2018-03-11T06:17:57.049Z,14.27
2018-03-11T06:20:25.444Z,13.90
2018-03-11T06:22:53.810Z,15.00
2018-03-11T06:25:22.194Z,15.37
2018-03-11T06:27:50.573Z,13.23
2018-03-11T06:30:18.964Z,14.67
2018-03-11T06:32:46.585Z,15.63
2018-03-11T06:35:14.211Z,13.93
2018-03-11T06:37:41.850Z,15.30
2018-03-11T06:40:09.445Z,15.50
2018-03-11T06:42:37.085Z,15.73
2018-03-11T06:45:04.691Z,15.27
2018-03-11T06:47:32.301Z,16.70
2018-03-11T06:49:59.936Z,15.30
2018-03-11T06:52:28.296Z,16.57
2018-03-11T06:54:56.698Z,15.67
2018-03-11T06:57:24.290Z,15.40
2018-03-11T06:59:51.893Z,15.03
2018-03-11T07:02:20.293Z,16.33
2018-03-11T07:04:47.931Z,14.90
2018-03-11T07:07:16.318Z,14.50
2018-03-11T07:09:44.691Z,15.10
2018-03-11T07:12:13.081Z,16.23
2018-03-11T07:14:41.504Z,16.03
2018-03-11T07:17:09.116Z,16.50
2018-03-11T07:19:37.542Z,16.90
2018-03-11T07:22:05.923Z,15.57
2018-03-11T07:24:33.526Z,15.57
2018-03-11T07:27:01.935Z,16.67
2018-03-11T07:29:29.629Z,15.13
2018-03-11T07:31:57.230Z,14.97
2018-03-11T07:34:25.634Z,15.17
2018-03-11T07:36:53.231Z,16.97
2018-03-11T07:39:20.838Z,15.30
2018-03-11T07:41:48.457Z,17.17
2018-03-11T07:44:17.046Z,16.60
2018-03-11T07:46:44.639Z,17.53
2018-03-11T07:49:14.072Z,17.40
2018-03-11T07:51:42.792Z,17.53
2018-03-11T07:54:11.271Z,17.73
2018-03-11T07:56:39.639Z,17.37
2018-03-11T07:59:07.279Z,15.93
2018-03-11T08:01:34.886Z,16.93
2018-03-11T08:04:03.258Z,17.47
2018-03-11T08:06:30.910Z,16.07
2018-03-11T08:08:58.584Z,16.90
2018-03-11T08:11:26.960Z,16.73
2018-03-11T08:13:55.427Z,16.70
2018-03-11T08:16:23.035Z,16.47
2018-03-11T08:18:50.625Z,15.73
2018-03-11T08:21:19.467Z,16.83
2018-03-11T08:23:47.893Z,16.63
2018-03-11T08:26:15.552Z,16.73
2018-03-11T08:28:43.146Z,17.20
2018-03-11T08:31:11.055Z,17.80
2018-03-11T08:33:38.678Z,21.23
2018-03-11T08:36:07.194Z,20.40
2018-03-11T08:38:34.794Z,18.90
2018-03-11T08:41:02.430Z,18.73
2018-03-11T08:43:30.038Z,17.80
2018-03-11T08:45:58.436Z,19.40
2018-03-11T08:48:26.230Z,18.93
2018-03-11T08:50:53.824Z,22.07
2018-03-11T08:53:21.424Z,18.03
2018-03-11T08:55:49.087Z,17.80
2018-03-11T08:58:16.699Z,16.67
2018-03-11T09:00:44.301Z,17.07
2018-03-11T09:03:12.229Z,16.27
2018-03-11T09:05:39.867Z,17.50
2018-03-11T09:08:08.299Z,16.70
2018-03-11T09:10:36.709Z,18.07
2018-03-11T09:13:04.371Z,16.63
2018-03-11T09:15:31.978Z,16.47
2018-03-11T09:17:59.566Z,17.10
2018-03-11T09:20:27.989Z,16.30
2018-03-11T09:22:55.598Z,17.20
2018-03-11T09:25:31.326Z,16.70
2018-03-11T09:27:58.934Z,17.23
2018-03-11T09:30:26.554Z,17.67
2018-03-11T09:32:55.036Z,17.40
2018-03-11T09:35:23.439Z,17.90
2018-03-11T09:37:52.378Z,16.90
2018-03-11T09:40:20.051Z,16.07
2018-03-11T09:42:48.531Z,16.43
2018-03-11T09:45:16.151Z,17.50
2018-03-11T09:47:44.566Z,17.80
2018-03-11T09:50:12.171Z,17.47
2018-03-11T09:52:39.796Z,16.07
2018-03-11T09:55:07.453Z,17.40
2018-03-11T09:57:35.849Z,15.93
2018-03-11T10:00:04.252Z,15.57
2018-03-11T10:02:31.918Z,15.47
2018-03-11T10:04:59.559Z,15.47
2018-03-11T10:07:28.008Z,16.50
2018-03-11T10:09:55.602Z,14.53
2018-03-11T10:12:23.235Z,14.83
2018-03-11T10:14:50.854Z,15.80
2018-03-11T10:17:18.645Z,15.27
2018-03-11T10:19:46.244Z,14.33
2018-03-11T10:22:13.838Z,13.10
2018-03-11T10:24:41.511Z,14.37
2018-03-11T10:27:09.265Z,13.70
2018-03-11T10:29:36.893Z,14.20
2018-03-11T10:32:04.596Z,14.20
2018-03-11T10:34:32.200Z,14.03
2018-03-11T10:37:00.619Z,13.80
2018-03-11T10:39:28.303Z,14.13
2018-03-11T10:41:56.363Z,12.90
2018-03-11T10:44:24.104Z,13.37
2018-03-11T10:46:51.694Z,13.23
2018-03-11T10:49:19.294Z,13.10
2018-03-11T10:51:47.692Z,11.47
2018-03-11T10:54:15.342Z,10.43
2018-03-11T10:56:43.713Z,9.47
2018-03-11T10:59:12.122Z,9.67
2018-03-11T11:01:45.374Z,8.97
2018-03-11T11:04:15.697Z,8.03
2018-03-11T11:06:44.116Z,8.17
2018-03-11T11:09:11.781Z,7.97
2018-03-11T11:11:39.450Z,7.40
2018-03-11T11:14:07.036Z,8.03
2018-03-11T11:16:34.714Z,7.27
2018-03-11T11:19:03.140Z,8.03
2018-03-11T11:21:30.730Z,7.87
2018-03-11T11:23:59.115Z,6.90
2018-03-11T11:26:26.760Z,7.10
2018-03-11T11:28:54.406Z,8.40
2018-03-11T11:31:22.070Z,7.30
2018-03-11T11:33:49.659Z,7.73
2018-03-11T11:36:17.299Z,8.37
2018-03-11T11:38:44.934Z,7.03
2018-03-11T11:41:12.544Z,7.33
2018-03-11T11:43:40.180Z,7.43
2018-03-11T11:46:07.842Z,7.60
2018-03-11T11:48:35.426Z,7.57
2018-03-11T11:51:03.071Z,7.70
2018-03-11T11:53:30.728Z,7.97
2018-03-11T11:55:58.331Z,7.97
2018-03-11T11:58:26.781Z,8.47
2018-03-11T12:00:55.393Z,8.47
2018-03-11T12:03:24.971Z,8.70
2018-03-11T12:05:52.819Z,7.90
2018-03-11T12:08:20.420Z,8.07
2018-03-11T12:10:48.843Z,8.07
2018-03-11T12:13:16.452Z,7.63
2018-03-11T12:15:44.850Z,7.67
2018-03-11T12:18:12.727Z,7.83
2018-03-11T12:20:40.328Z,7.37
2018-03-11T12:23:07.962Z,7.77
2018-03-11T12:25:35.563Z,7.83
2018-03-11T12:28:03.192Z,8.40
2018-03-11T12:30:30.832Z,8.37
2018-03-11T12:32:58.422Z,8.00
2018-03-11T12:35:26.080Z,7.50
2018-03-11T12:37:53.664Z,8.00
2018-03-11T12:40:21.299Z,7.33
2018-03-11T12:42:48.950Z,7.93
2018-03-11T12:45:16.631Z,7.87
2018-03-11T12:47:44.243Z,8.00
2018-03-11T12:50:13.748Z,8.00
2018-03-11T12:52:41.436Z,6.93
2018-03-11T12:55:10.176Z,8.20
2018-03-11T12:57:39.022Z,7.03
2018-03-11T13:00:06.619Z,6.90
2018-03-11T13:02:34.959Z,6.90
2018-03-11T13:05:02.670Z,6.27
2018-03-11T13:07:30.271Z,6.70
2018-03-11T13:09:57.866Z,6.87
2018-03-11T13:12:25.435Z,7.20
2018-03-11T13:14:57.205Z,6.50
2018-03-11T13:17:25.535Z,7.07
2018-03-11T13:20:04.956Z,6.87
2018-03-11T13:22:32.581Z,6.57
2018-03-11T13:25:00.912Z,6.90
2018-03-11T13:27:28.468Z,6.63
2018-03-11T13:29:56.060Z,6.67
2018-03-11T13:32:36.347Z,6.70
2018-03-11T13:35:04.165Z,5.27
2018-03-11T13:37:31.719Z,6.17
2018-03-11T13:40:11.257Z,6.23
2018-03-11T13:42:38.812Z,5.70
2018-03-11T13:45:18.525Z,5.63
2018-03-11T13:47:46.091Z,6.27
2018-03-11T13:50:13.629Z,6.63
2018-03-11T13:52:53.065Z,6.50
2018-03-11T13:55:20.684Z,5.90
2018-03-11T14:00:48.843Z,5.50
2018-03-11T14:03:16.428Z,5.50
2018-03-11T14:05:44.164Z,4.97
2018-03-11T14:08:11.826Z,5.90
2018-03-11T14:10:39.442Z,4.90
2018-03-11T14:13:07.795Z,5.80
2018-03-11T14:15:36.262Z,5.63
2018-03-11T14:18:04.570Z,5.73
2018-03-11T14:20:32.183Z,5.10
2018-03-11T14:22:59.844Z,5.23
2018-03-11T14:25:27.465Z,5.03
2018-03-11T14:27:55.867Z,5.60
2018-03-11T14:30:23.454Z,5.03
2018-03-11T14:32:51.110Z,5.10
2018-03-11T14:35:18.756Z,5.50
2018-03-11T14:37:46.448Z,5.30
2018-03-11T14:40:14.067Z,4.60
2018-03-11T14:42:41.710Z,5.63
2018-03-11T14:45:09.296Z,5.20
2018-03-11T14:47:36.883Z,5.07
2018-03-11T14:50:04.593Z,5.23
2018-03-11T14:52:32.214Z,5.20
2018-03-11T14:54:59.818Z,5.50
2018-03-11T14:57:27.503Z,5.00
2018-03-11T14:59:55.164Z,5.30
2018-03-11T15:02:22.750Z,5.30
2018-03-11T15:04:50.437Z,4.80
2018-03-11T15:07:18.789Z,5.50
2018-03-11T15:09:46.407Z,5.07
2018-03-11T15:12:14.059Z,4.93
2018-03-11T15:14:41.683Z,5.23
2018-03-11T15:17:09.308Z,5.43
2018-03-11T15:19:37.020Z,6.07
2018-03-11T15:22:04.679Z,5.33
2018-03-11T15:24:32.538Z,5.63
2018-03-11T15:27:00.922Z,5.30
2018-03-11T15:29:30.544Z,5.80
2018-03-11T15:31:58.917Z,5.20
2018-03-11T15:34:27.357Z,6.23
2018-03-11T15:36:54.930Z,6.03
2018-03-11T15:39:22.548Z,5.90
2018-03-11T15:41:50.163Z,6.13
2018-03-11T15:44:17.832Z,6.60
2018-03-11T15:46:45.501Z,5.27
2018-03-11T15:49:13.232Z,6.03
2018-03-11T15:51:40.892Z,5.33
2018-03-11T15:54:08.516Z,6.10
2018-03-11T15:56:36.343Z,5.50
2018-03-11T15:59:04.722Z,5.90
2018-03-11T16:01:32.523Z,6.10
2018-03-11T16:04:00.228Z,5.40
2018-03-11T16:06:28.040Z,6.50
2018-03-11T16:08:56.277Z,5.47
2018-03-11T16:11:24.723Z,5.43
2018-03-11T16:13:52.918Z,5.43
2018-03-11T16:16:20.678Z,5.10
2018-03-11T16:18:49.159Z,4.93
2018-03-11T16:21:16.773Z,5.07
2018-03-11T16:23:44.438Z,4.93
2018-03-11T16:26:12.040Z,5.13
2018-03-11T16:28:39.754Z,5.07
2018-03-11T16:31:07.387Z,5.43
2018-03-11T16:33:35.041Z,5.50
2018-03-11T16:36:03.447Z,5.10
2018-03-11T16:38:31.046Z,5.47
2018-03-11T16:40:58.642Z,5.03
2018-03-11T16:43:27.060Z,4.97
2018-03-11T16:45:54.716Z,5.00
2018-03-11T16:48:22.845Z,5.67
2018-03-11T16:50:51.476Z,7.20
2018-03-11T16:53:19.094Z,7.20
2018-03-11T16:55:47.489Z,7.10
2018-03-11T16:58:15.166Z,7.13
2018-03-11T17:00:42.864Z,6.37
2018-03-11T17:03:10.602Z,6.17
2018-03-11T17:05:38.195Z,6.47
2018-03-11T17:08:07.295Z,6.20
2018-03-11T17:10:34.917Z,5.70
2018-03-11T17:13:02.582Z,5.80
2018-03-11T17:15:30.197Z,6.97
2018-03-11T17:17:58.613Z,5.87
2018-03-11T17:20:26.255Z,6.17
2018-03-11T17:22:53.936Z,6.20
2018-03-11T17:25:21.615Z,6.63
2018-03-11T17:27:52.310Z,6.50
2018-03-11T17:30:20.896Z,6.57
2018-03-11T17:32:48.612Z,6.90
2018-03-11T17:35:17.069Z,6.60
2018-03-11T17:37:44.696Z,6.60
2018-03-11T17:40:12.387Z,6.40
2018-03-11T17:42:40.038Z,6.23
2018-03-11T17:45:07.682Z,6.57
2018-03-11T17:47:35.279Z,6.80
2018-03-11T17:50:02.922Z,6.33
2018-03-11T17:52:30.564Z,5.87
2018-03-11T17:54:58.163Z,6.83
2018-03-11T17:57:25.792Z,6.60
2018-03-11T17:59:53.443Z,6.80
2018-03-11T18:02:21.110Z,6.07
2018-03-11T18:04:48.741Z,6.93
2018-03-11T18:07:16.349Z,6.27
2018-03-11T18:09:44.219Z,6.63
2018-03-11T18:12:11.859Z,6.40
2018-03-11T18:14:39.442Z,6.87
2018-03-11T18:17:07.022Z,7.57
2018-03-11T18:19:35.461Z,10.93
2018-03-11T18:22:03.062Z,9.07
2018-03-11T18:24:30.669Z,7.07
2018-03-11T18:26:58.292Z,7.53
2018-03-11T18:29:26.834Z,7.87
2018-03-11T18:31:54.425Z,7.00
2018-03-11T18:34:22.031Z,7.70
2018-03-11T18:36:49.807Z,7.90
2018-03-11T18:39:17.442Z,6.87
2018-03-11T18:41:45.065Z,7.50
2018-03-11T18:44:14.169Z,7.10
2018-03-11T18:46:42.351Z,6.97
2018-03-11T18:49:10.828Z,6.90
2018-03-11T18:51:39.209Z,8.20
2018-03-11T18:54:07.722Z,8.37
2018-03-11T18:56:35.432Z,8.33
2018-03-11T18:59:03.046Z,8.63
2018-03-11T19:01:31.510Z,8.80
2018-03-11T19:03:59.190Z,10.13
2018-03-11T19:06:26.796Z,11.13
2018-03-11T19:08:54.430Z,10.40
2018-03-11T19:11:22.046Z,9.50
2018-03-11T19:13:49.948Z,10.47
2018-03-11T19:16:17.589Z,9.53
2018-03-11T19:18:45.195Z,10.60
2018-03-11T19:21:13.039Z,9.57
2018-03-11T19:23:40.666Z,10.80
2018-03-11T19:26:08.280Z,12.37
2018-03-11T19:28:35.926Z,11.00
2018-03-11T19:31:03.579Z,12.03
2018-03-11T19:33:31.251Z,8.90
2018-03-11T19:35:58.852Z,9.13
2018-03-11T19:38:28.028Z,8.40
2018-03-11T19:40:55.627Z,9.53
2018-03-11T19:43:23.253Z,9.10
2018-03-11T19:45:51.846Z,9.23
2018-03-11T19:48:20.256Z,8.80
2018-03-11T19:50:48.549Z,8.57
2018-03-11T19:53:16.228Z,8.57
2018-03-11T19:55:43.821Z,8.47
2018-03-11T19:58:12.204Z,8.60
2018-03-11T20:00:40.604Z,8.50
2018-03-11T20:03:08.791Z,8.00
2018-03-11T20:05:36.436Z,8.20
2018-03-11T20:08:04.049Z,8.13
2018-03-11T20:10:31.665Z,8.53
2018-03-11T20:12:59.301Z,8.93
2018-03-11T20:15:27.731Z,9.00
2018-03-11T20:17:55.358Z,8.67
2018-03-11T20:20:23.025Z,8.80
2018-03-11T20:22:50.705Z,8.80
2018-03-11T20:25:18.344Z,8.87
2018-03-11T20:27:45.965Z,9.00
2018-03-11T20:30:13.599Z,9.20
2018-03-11T20:32:41.200Z,9.63
2018-03-11T20:35:09.589Z,8.93
2018-03-11T20:37:37.996Z,9.63
2018-03-11T20:40:05.595Z,9.63
2018-03-11T20:42:33.285Z,9.40
2018-03-11T20:45:01.697Z,9.43
2018-03-11T20:47:29.302Z,10.70
2018-03-11T20:49:56.916Z,9.80
2018-03-11T20:52:24.552Z,9.33
2018-03-11T20:54:52.177Z,8.93
2018-03-11T20:57:19.768Z,9.37
2018-03-11T20:59:48.157Z,9.70
2018-03-11T21:02:16.551Z,9.43
2018-03-11T21:04:44.219Z,8.90
2018-03-11T21:07:11.832Z,10.00
2018-03-11T21:09:40.229Z,10.30
2018-03-11T21:12:07.814Z,9.37
2018-03-11T21:14:35.425Z,9.53
2018-03-11T21:17:03.859Z,9.63
2018-03-11T21:19:31.467Z,9.53
2018-03-11T21:21:59.813Z,9.17
2018-03-11T21:24:27.556Z,9.47
2018-03-11T21:26:55.197Z,9.40
2018-03-11T21:29:22.782Z,10.13
2018-03-11T21:31:50.374Z,9.07
2018-03-11T21:34:17.989Z,10.13
2018-03-11T21:36:45.578Z,8.93
2018-03-11T21:39:14.003Z,10.03
2018-03-11T21:41:41.581Z,9.93
2018-03-11T21:44:09.175Z,9.57
2018-03-11T21:46:36.808Z,10.37
2018-03-11T21:49:04.439Z,10.00
2018-03-11T21:51:32.032Z,10.07
2018-03-11T21:53:59.623Z,10.00
2018-03-11T21:56:28.022Z,10.90
2018-03-11T21:58:56.420Z,10.00
2018-03-11T22:01:24.053Z,10.60
2018-03-11T22:03:52.518Z,10.60
2018-03-11T22:06:20.151Z,9.30
2018-03-11T22:08:47.770Z,9.43
2018-03-11T22:11:16.197Z,10.47
2018-03-11T22:13:43.790Z,9.07
2018-03-11T22:16:12.161Z,9.83
2018-03-11T22:18:39.789Z,9.73
2018-03-11T22:21:07.430Z,9.60
2018-03-11T22:23:35.023Z,10.10
2018-03-11T22:26:02.669Z,10.13
2018-03-11T22:28:30.539Z,9.73
2018-03-11T22:30:58.144Z,9.50
2018-03-11T22:33:25.788Z,10.63
2018-03-11T22:35:53.433Z,10.47
2018-03-11T22:38:21.032Z,10.20
2018-03-11T22:40:49.395Z,10.23
2018-03-11T22:43:17.824Z,9.90
2018-03-11T22:45:45.420Z,9.70
2018-03-11T22:48:13.037Z,9.57
2018-03-11T22:50:40.687Z,11.50
2018-03-11T22:53:08.370Z,9.77
2018-03-11T22:55:35.962Z,11.30
2018-03-11T22:58:03.599Z,10.60
2018-03-11T23:00:31.202Z,10.23
2018-03-11T23:02:59.566Z,11.10
2018-03-11T23:05:29.343Z,10.37
2018-03-11T23:07:56.949Z,10.37
2018-03-11T23:10:25.446Z,9.60
2018-03-11T23:12:53.102Z,10.37
2018-03-11T23:15:20.717Z,8.37
2018-03-11T23:17:48.337Z,9.67
2018-03-11T23:20:15.951Z,10.63
2018-03-11T23:22:43.555Z,9.97
2018-03-11T23:25:11.182Z,10.67
2018-03-11T23:27:38.922Z,10.83
2018-03-11T23:30:06.518Z,10.53
2018-03-11T23:32:34.946Z,10.27
2018-03-11T23:35:02.599Z,9.67
2018-03-11T23:37:30.240Z,10.17
2018-03-11T23:39:57.852Z,9.97
2018-03-11T23:42:25.508Z,10.40
2018-03-11T23:44:53.099Z,9.57
2018-03-11T23:47:21.453Z,10.80
2018-03-11T23:49:49.166Z,11.17
2018-03-11T23:52:16.766Z,11.50
2018-03-11T23:54:44.416Z,11.10
2018-03-11T23:57:12.013Z,10.77
2018-03-11T23:59:40.378Z,10.90
